Time;durP1;ratioP1;P1;durP2;ratioP2;P2;SDS_P1;SDS_P2;PMS_P1;PMS_P2;Temp;Humidity;BMP_temperature;BMP_pressure;BME280_temperature;BME280_humidity;BME280_pressure;Samples;Min_cycle;Max_cycle;Signal;HPM_P1;HPM_P2
2024/01/23 00:00:11;;;;;;;18.65;3.08;;;;;;;7.67;96.18;101485.03;5000767;28;20072;-70
2024/01/23 00:02:38;;;;;;;17.88;3.35;;;;;;;7.68;95.71;101492.00;5005917;28;20042;-70
2024/01/23 00:05:06;;;;;;;21.77;4.15;;;;;;;7.68;95.86;101488.53;4989198;28;20053;-70
2024/01/23 00:07:33;;;;;;;15.65;3.15;;;;;;;7.66;95.45;101491.16;5005608;28;20046;-70
2024/01/23 00:10:00;;;;;;;14.48;3.17;;;;;;;7.61;93.75;101508.69;5008097;28;20073;-70
2024/01/23 00:12:27;;;;;;;10.95;2.53;;;;;;;7.54;94.50;101517.50;5006298;28;20042;-70
2024/01/23 00:14:54;;;;;;;16.23;2.80;;;;;;;7.48;95.01;101525.41;5004010;28;20078;-69
2024/01/23 00:17:22;;;;;;;19.77;3.70;;;;;;;7.44;94.55;101537.66;5007372;28;20056;-70
2024/01/23 00:19:53;;;;;;;12.77;2.72;;;;;;;7.41;94.11;101540.31;4989106;28;20038;-70
2024/01/23 00:22:20;;;;;;;16.58;3.75;;;;;;;7.38;94.39;101543.81;5002213;28;20593;-70
2024/01/23 00:24:47;;;;;;;20.60;2.92;;;;;;;7.32;94.23;101543.84;5009817;28;20062;-70
2024/01/23 00:27:14;;;;;;;19.40;4.15;;;;;;;7.27;94.42;101561.38;5012470;28;20176;-70
2024/01/23 00:29:41;;;;;;;7.93;2.75;;;;;;;7.25;94.88;101558.75;5011024;28;20045;-70
2024/01/23 00:32:09;;;;;;;18.23;3.58;;;;;;;7.23;95.21;101571.00;5009376;28;20046;-70
2024/01/23 00:34:36;;;;;;;15.93;3.33;;;;;;;7.22;95.05;101571.91;5010765;28;20037;-70
2024/01/23 00:37:04;;;;;;;15.32;2.97;;;;;;;7.25;94.50;101563.13;5009294;28;20128;-70
2024/01/23 00:39:31;;;;;;;14.40;2.75;;;;;;;7.30;94.29;101566.59;5010153;28;20042;-70
2024/01/23 00:41:58;;;;;;;11.60;2.75;;;;;;;7.35;93.34;101572.72;5009970;28;20091;-70
2024/01/23 00:44:25;;;;;;;9.93;2.47;;;;;;;7.37;93.72;101570.94;5010878;28;20058;-70
2024/01/23 00:46:52;;;;;;;17.27;2.65;;;;;;;7.42;92.69;101582.28;5009274;28;20049;-70
2024/01/23 00:49:19;;;;;;;12.13;2.67;;;;;;;7.44;92.80;101571.75;5011062;28;20042;-70
2024/01/23 00:51:47;;;;;;;13.18;2.67;;;;;;;7.49;91.96;101579.59;5008534;28;20136;-69
2024/01/23 00:54:14;;;;;;;19.63;3.28;;;;;;;7.50;92.73;101591.84;5010205;28;20053;-70
2024/01/23 00:56:44;;;;;;;17.88;3.92;;;;;;;7.51;93.09;101598.84;5010237;28;20500;-69
2024/01/23 00:59:12;;;;;;;10.88;3.00;;;;;;;7.49;93.15;101601.50;5011165;28;20046;-69
2024/01/23 01:01:39;;;;;;;15.00;2.75;;;;;;;7.50;93.16;101615.47;5009757;28;20129;-69
2024/01/23 01:04:06;;;;;;;15.45;2.90;;;;;;;7.45;93.49;101621.63;4998920;28;20053;-70
2024/01/23 01:06:33;;;;;;;16.30;2.67;;;;;;;7.46;92.37;101626.00;5009075;28;20076;-70
2024/01/23 01:09:02;;;;;;;16.42;3.08;;;;;;;7.44;93.26;101640.88;5009963;28;20056;-70
2024/01/23 01:11:29;;;;;;;13.68;3.20;;;;;;;7.47;92.86;101634.72;5007685;28;20049;-70
2024/01/23 01:13:57;;;;;;;15.02;3.05;;;;;;;7.46;92.10;101636.50;5008978;28;20151;-70
2024/01/23 01:16:25;;;;;;;15.85;2.67;;;;;;;7.45;92.20;101649.59;5010810;28;20042;-70
2024/01/23 01:18:53;;;;;;;13.45;2.55;;;;;;;7.41;91.56;101635.63;5008734;28;20077;-70
2024/01/23 01:21:21;;;;;;;9.80;2.42;;;;;;;7.41;90.88;101640.00;5010959;28;20560;-70
2024/01/23 01:23:48;;;;;;;13.90;2.90;;;;;;;7.36;91.36;101647.91;5005077;28;20108;-70
2024/01/23 01:26:15;;;;;;;18.38;3.08;;;;;;;7.37;91.11;101644.41;4991802;28;20506;-69
2024/01/23 01:28:42;;;;;;;18.90;2.67;;;;;;;7.36;91.28;101636.53;5003151;28;20435;-69
2024/01/23 01:31:09;;;;;;;16.92;3.38;;;;;;;7.36;91.58;101652.25;5008943;28;20553;-69
2024/01/23 01:33:36;;;;;;;11.68;2.70;;;;;;;7.33;91.56;101657.50;5009448;28;20094;-70
2024/01/23 01:36:04;;;;;;;10.68;3.00;;;;;;;7.29;92.19;101668.03;5007163;28;20493;-70
2024/01/23 01:38:35;;;;;;;14.23;3.25;;;;;;;7.29;92.27;101673.28;5006157;28;20100;-70
2024/01/23 01:41:17;;;;;;;14.60;3.15;;;;;;;7.31;91.78;101675.88;5008399;28;20121;-70
2024/01/23 01:43:44;;;;;;;15.68;2.75;;;;;;;7.32;91.57;101693.38;5009002;28;20041;-70
2024/01/23 01:46:17;;;;;;;22.35;3.03;;;;;;;7.32;91.57;101684.66;5008537;28;20128;-70
2024/01/23 01:48:47;;;;;;;20.10;3.08;;;;;;;7.29;91.58;101694.25;5024376;28;20055;-70
2024/01/23 01:51:21;;;;;;;16.48;3.25;;;;;;;7.27;91.69;101696.00;5007202;28;20053;-70
2024/01/23 01:53:49;;;;;;;11.15;3.20;;;;;;;7.27;90.92;101695.16;5005826;28;20077;-70
2024/01/23 01:56:20;;;;;;;14.98;2.80;;;;;;;7.18;91.79;101682.94;5009783;28;20124;-70
2024/01/23 01:58:48;;;;;;;17.05;3.30;;;;;;;7.10;92.26;101689.94;5010622;28;20190;-70
2024/01/23 02:01:15;;;;;;;16.63;3.33;;;;;;;7.03;92.19;101699.56;5020453;28;20117;-70
2024/01/23 02:03:42;;;;;;;20.48;3.75;;;;;;;6.91;92.94;101704.81;5006467;28;20037;-70
2024/01/23 02:06:11;;;;;;;24.98;3.45;;;;;;;6.82;93.32;101721.41;5008787;28;20067;-70
2024/01/23 02:08:39;;;;;;;16.45;2.70;;;;;;;6.72;93.74;101725.81;5007416;28;20046;-70
2024/01/23 02:11:06;;;;;;;15.63;3.25;;;;;;;6.68;93.93;101737.16;5007667;28;20501;-70
2024/01/23 02:13:33;;;;;;;18.90;3.10;;;;;;;6.66;93.96;101739.78;5005742;28;20048;-70
2024/01/23 02:16:00;;;;;;;16.08;2.97;;;;;;;6.60;94.24;101750.28;5008777;28;20164;-69
2024/01/23 02:18:27;;;;;;;12.50;2.90;;;;;;;6.53;94.58;101746.78;5007804;28;20037;-69
2024/01/23 02:20:54;;;;;;;20.80;3.88;;;;;;;6.50;94.64;101751.13;5010552;28;20069;-69
2024/01/23 02:23:32;;;;;;;13.80;3.05;;;;;;;6.45;95.20;101760.72;5003685;28;20129;-70
2024/01/23 02:25:59;;;;;;;16.23;3.45;;;;;;;6.43;95.25;101759.84;5007823;28;20112;-70
2024/01/23 02:28:27;;;;;;;17.33;3.10;;;;;;;6.38;95.56;101762.44;5007730;28;20712;-70
2024/01/23 02:30:54;;;;;;;11.88;3.28;;;;;;;6.32;95.84;101757.22;5007784;28;20050;-70
2024/01/23 02:33:21;;;;;;;16.75;3.20;;;;;;;6.26;96.20;101770.31;5009218;28;20430;-70
2024/01/23 02:35:49;;;;;;;21.42;2.90;;;;;;;6.22;96.41;101780.75;4998450;28;20052;-70
2024/01/23 02:38:16;;;;;;;15.93;3.00;;;;;;;6.19;96.70;101780.75;5008635;28;20723;-69
2024/01/23 02:40:43;;;;;;;13.40;2.97;;;;;;;6.15;97.07;101776.38;5015325;28;20124;-70
2024/01/23 02:43:10;;;;;;;15.98;2.92;;;;;;;6.14;97.13;101787.72;5006839;28;20041;-70
2024/01/23 02:45:37;;;;;;;18.13;2.90;;;;;;;6.11;97.61;101772.00;5007866;28;20054;-70
2024/01/23 02:48:05;;;;;;;13.52;3.05;;;;;;;6.15;97.34;101791.19;4998249;28;20111;-69
2024/01/23 02:50:32;;;;;;;18.33;2.80;;;;;;;6.13;97.67;101788.59;5008625;28;20049;-69
2024/01/23 02:53:00;;;;;;;10.52;2.60;;;;;;;6.15;97.47;101805.19;5007255;28;20050;-69
2024/01/23 02:55:27;;;;;;;15.10;2.63;;;;;;;6.17;97.55;101806.03;5007532;28;20050;-69
2024/01/23 02:57:54;;;;;;;14.48;2.95;;;;;;;6.17;97.49;101808.66;5024076;28;20104;-69
2024/01/23 03:00:21;;;;;;;17.58;3.03;;;;;;;6.14;97.84;101810.41;5007436;28;20137;-68
2024/01/23 03:02:48;;;;;;;24.73;4.15;;;;;;;6.12;97.91;101820.88;5008556;28;20048;-69
2024/01/23 03:05:15;;;;;;;14.25;2.90;;;;;;;6.16;98.07;101822.63;5008780;28;20054;-70
2024/01/23 03:07:43;;;;;;;17.10;3.22;;;;;;;6.15;98.03;101828.75;5006604;28;20073;-70
2024/01/23 03:10:12;;;;;;;19.15;3.50;;;;;;;6.17;98.22;101824.38;5007044;28;20525;-69
2024/01/23 03:12:41;;;;;;;14.48;2.97;;;;;;;6.17;98.00;101837.47;5006523;28;20123;-69
2024/01/23 03:15:09;;;;;;;17.15;3.25;;;;;;;6.16;97.98;101842.69;5006988;28;20046;-70
2024/01/23 03:17:36;;;;;;;19.67;3.17;;;;;;;6.14;98.24;101855.78;4980834;28;20042;-70
2024/01/23 03:20:04;;;;;;;19.42;3.30;;;;;;;6.16;98.19;101842.69;5001435;28;20517;-70
2024/01/23 03:22:31;;;;;;;18.30;3.10;;;;;;;6.16;98.49;101840.94;5006311;28;20111;-70
2024/01/23 03:24:59;;;;;;;19.05;3.47;;;;;;;6.19;98.43;101854.06;5006878;28;20097;-69
2024/01/23 03:27:26;;;;;;;17.38;2.58;;;;;;;6.20;98.59;101857.56;5007693;28;20101;-70
2024/01/23 03:29:54;;;;;;;15.00;3.38;;;;;;;6.28;98.24;101848.00;5003140;28;20047;-70
2024/01/23 03:32:21;;;;;;;17.75;2.92;;;;;;;6.30;98.14;101858.47;5000410;28;20044;-70
2024/01/23 03:34:49;;;;;;;12.30;3.08;;;;;;;6.32;97.71;101861.97;5008149;28;20180;-69
2024/01/23 03:37:17;;;;;;;19.65;3.47;;;;;;;6.32;97.78;101862.81;5001690;28;20046;-70
2024/01/23 03:39:44;;;;;;;14.85;3.13;;;;;;;6.29;97.69;101864.56;5005532;28;20049;-69
2024/01/23 03:42:11;;;;;;;17.25;2.97;;;;;;;6.27;97.69;101867.19;5006008;28;20631;-70
2024/01/23 03:44:39;;;;;;;15.45;3.22;;;;;;;6.28;97.73;101878.53;5004053;28;20064;-69
2024/01/23 03:47:06;;;;;;;18.98;4.22;;;;;;;6.30;97.21;101885.53;5006315;28;20079;-69
2024/01/23 03:49:33;;;;;;;17.25;3.15;;;;;;;6.31;97.38;101889.88;5008154;28;20072;-69
2024/01/23 03:52:00;;;;;;;15.02;3.22;;;;;;;6.32;97.08;101896.00;5020211;28;20042;-70
2024/01/23 03:54:27;;;;;;;16.58;3.15;;;;;;;6.32;97.13;101898.63;5000003;28;20722;-70
2024/01/23 03:56:54;;;;;;;14.70;3.42;;;;;;;6.35;97.00;101907.38;5005762;28;20069;-69
2024/01/23 03:59:22;;;;;;;15.38;3.42;;;;;;;6.38;96.21;101909.13;4987858;28;20529;-69
2024/01/23 04:01:49;;;;;;;16.75;2.92;;;;;;;6.40;96.08;101907.41;4995824;28;20585;-70
2024/01/23 04:04:16;;;;;;;15.13;3.60;;;;;;;6.39;96.14;101917.88;4985672;28;20518;-69
2024/01/23 04:06:43;;;;;;;14.20;2.55;;;;;;;6.32;96.07;101919.59;5020032;28;20060;-70
2024/01/23 04:09:10;;;;;;;24.45;3.90;;;;;;;6.22;96.42;101926.50;5003437;28;20050;-72
2024/01/23 04:11:38;;;;;;;21.02;3.15;;;;;;;6.14;96.72;101941.31;5004474;28;20161;-71
2024/01/23 04:14:05;;;;;;;17.65;3.47;;;;;;;6.04;97.35;101937.78;5004099;28;20137;-71
2024/01/23 04:16:32;;;;;;;15.52;2.88;;;;;;;5.97;97.64;101938.56;5002243;28;20064;-71
2024/01/23 04:18:59;;;;;;;21.50;3.60;;;;;;;5.91;98.05;101949.84;5008089;28;20549;-71
2024/01/23 04:21:26;;;;;;;18.80;4.30;;;;;;;5.88;98.17;101955.09;5006471;28;20077;-71
2024/01/23 04:23:53;;;;;;;21.73;4.10;;;;;;;5.83;98.33;101955.06;5006621;28;20073;-71
2024/01/23 04:26:20;;;;;;;15.20;3.30;;;;;;;5.78;98.77;101954.13;5006791;28;20041;-71
2024/01/23 04:28:48;;;;;;;19.95;3.95;;;;;;;5.72;99.11;101965.44;5007131;28;20129;-71
2024/01/23 04:31:16;;;;;;;15.73;3.08;;;;;;;5.67;99.23;101961.03;5005333;28;20041;-69
2024/01/23 04:33:46;;;;;;;18.15;3.28;;;;;;;5.63;99.28;101973.19;5005972;28;20050;-70
2024/01/23 04:36:14;;;;;;;17.15;3.25;;;;;;;5.66;99.62;101974.97;5006515;28;20038;-71
2024/01/23 04:38:42;;;;;;;24.40;3.90;;;;;;;5.63;99.77;101974.97;5014201;28;20052;-69
2024/01/23 04:41:10;;;;;;;16.38;2.90;;;;;;;5.61;99.80;101982.78;5005348;28;20767;-70
2024/01/23 04:43:38;;;;;;;17.10;3.55;;;;;;;5.58;100.00;101986.25;5006762;28;20049;-69
2024/01/23 04:46:06;;;;;;;15.60;3.72;;;;;;;5.53;100.00;102000.16;5018549;28;20047;-70
2024/01/23 04:48:37;;;;;;;22.17;3.65;;;;;;;5.49;100.00;102009.72;5007443;28;20057;-69
2024/01/23 04:51:05;;;;;;;19.50;3.60;;;;;;;5.46;100.00;102007.06;5006722;28;20104;-70
2024/01/23 04:53:33;;;;;;;14.55;3.00;;;;;;;5.43;100.00;102015.75;5006717;28;20046;-70
2024/01/23 04:56:01;;;;;;;19.45;3.63;;;;;;;5.45;100.00;102021.00;5005775;28;21845;-71
2024/01/23 04:58:29;;;;;;;18.95;3.67;;;;;;;5.43;100.00;102023.59;5007468;28;20157;-69
2024/01/23 05:00:56;;;;;;;21.92;4.05;;;;;;;5.38;100.00;102027.91;5004680;28;20421;-70
2024/01/23 05:03:23;;;;;;;12.05;2.95;;;;;;;5.35;100.00;102029.59;5007318;28;20038;-69
2024/01/23 05:05:51;;;;;;;19.90;2.90;;;;;;;5.32;100.00;102038.31;5008483;28;20053;-69
2024/01/23 05:08:18;;;;;;;20.25;3.53;;;;;;;5.33;100.00;102047.03;5009441;28;20050;-70
2024/01/23 05:10:45;;;;;;;22.13;3.28;;;;;;;5.31;100.00;102054.84;5006661;28;20505;-69
2024/01/23 05:13:12;;;;;;;20.20;3.58;;;;;;;5.26;100.00;102054.78;5011007;28;20303;-69
2024/01/23 05:15:39;;;;;;;10.95;2.78;;;;;;;5.26;100.00;102065.25;5005628;28;20293;-69
2024/01/23 05:18:07;;;;;;;17.10;3.38;;;;;;;5.21;100.00;102076.53;5010330;28;20046;-69
2024/01/23 05:20:36;;;;;;;19.73;4.00;;;;;;;5.19;100.00;102079.13;5008906;28;20046;-70
2024/01/23 05:23:03;;;;;;;20.35;3.40;;;;;;;5.18;100.00;102087.81;5010914;28;20100;-69
2024/01/23 05:25:31;;;;;;;22.30;3.58;;;;;;;5.13;100.00;102089.53;5007632;28;20494;-70
2024/01/23 05:27:58;;;;;;;15.93;2.95;;;;;;;5.13;100.00;102098.22;5011884;28;20069;-70
2024/01/23 05:30:26;;;;;;;17.63;3.55;;;;;;;5.15;100.00;102100.00;5009811;28;20050;-69
2024/01/23 05:32:53;;;;;;;22.05;3.38;;;;;;;5.15;100.00;102107.84;5010337;28;20045;-69
2024/01/23 05:35:20;;;;;;;21.10;3.60;;;;;;;5.16;100.00;102110.47;5009375;28;20073;-69
2024/01/23 05:37:47;;;;;;;22.30;3.78;;;;;;;5.13;100.00;102107.81;5010512;28;20041;-69
2024/01/23 05:40:15;;;;;;;18.40;3.50;;;;;;;5.11;100.00;102114.75;5006887;28;20066;-69
2024/01/23 05:42:42;;;;;;;17.58;3.72;;;;;;;5.08;100.00;102122.56;5010239;28;20030;-70
2024/01/23 05:45:10;;;;;;;17.73;3.13;;;;;;;5.03;100.00;102130.34;5007834;28;20046;-70
2024/01/23 05:47:37;;;;;;;16.63;3.38;;;;;;;4.98;100.00;102135.50;5006322;28;20057;-71
2024/01/23 05:50:06;;;;;;;22.88;3.90;;;;;;;4.98;100.00;102148.56;5007879;28;20103;-71
2024/01/23 05:52:33;;;;;;;21.85;3.60;;;;;;;5.02;100.00;102146.00;5010000;28;20037;-71
2024/01/23 05:55:01;;;;;;;17.08;3.53;;;;;;;5.10;100.00;102147.00;5008914;28;20077;-71
2024/01/23 05:57:28;;;;;;;21.00;4.10;;;;;;;5.19;100.00;102154.94;5007467;28;20659;-71
2024/01/23 05:59:56;;;;;;;17.20;2.92;;;;;;;5.34;100.00;102161.25;5021537;28;20129;-71
2024/01/23 06:02:23;;;;;;;22.02;3.75;;;;;;;5.42;100.00;102162.22;5022902;28;20049;-71
2024/01/23 06:04:50;;;;;;;15.98;3.17;;;;;;;5.52;100.00;102158.84;5008878;28;20061;-71
2024/01/23 06:07:17;;;;;;;15.70;2.83;;;;;;;5.57;100.00;102162.38;5009532;28;20050;-73
2024/01/23 06:09:44;;;;;;;15.90;2.97;;;;;;;5.54;100.00;102162.38;5007297;28;20042;-72
2024/01/23 06:12:12;;;;;;;18.30;2.88;;;;;;;5.55;100.00;102163.22;5010464;28;20049;-71
2024/01/23 06:14:39;;;;;;;16.23;3.25;;;;;;;5.54;100.00;102164.09;5005920;28;20050;-71
2024/01/23 06:17:07;;;;;;;19.25;3.20;;;;;;;5.64;100.00;102172.94;5014483;28;20044;-71
2024/01/23 06:19:35;;;;;;;16.63;2.88;;;;;;;5.67;100.00;102167.72;5010981;28;20045;-69
2024/01/23 06:22:03;;;;;;;16.33;3.50;;;;;;;5.53;100.00;102172.78;5010578;28;20041;-68
2024/01/23 06:24:34;;;;;;;22.73;4.13;;;;;;;5.38;100.00;102189.19;5009105;28;20081;-68
2024/01/23 06:27:01;;;;;;;25.80;4.05;;;;;;;5.19;100.00;102196.78;5010123;28;20061;-69
2024/01/23 06:29:28;;;;;;;16.38;3.90;;;;;;;5.08;100.00;102211.44;5006959;28;20531;-69
2024/01/23 06:31:55;;;;;;;15.88;2.95;;;;;;;4.98;100.00;102207.81;4995644;28;20042;-69
2024/01/23 06:34:26;;;;;;;14.55;3.30;;;;;;;4.89;100.00;102212.88;5002797;28;20093;-69
2024/01/23 06:36:54;;;;;;;14.02;3.50;;;;;;;4.83;100.00;102205.84;5009538;28;20045;-68
2024/01/23 06:39:22;;;;;;;18.40;3.00;;;;;;;4.78;100.00;102224.03;4995522;28;20417;-69
2024/01/23 06:41:49;;;;;;;22.33;4.20;;;;;;;4.72;100.00;102223.97;4998587;28;20030;-69
2024/01/23 06:44:16;;;;;;;22.80;3.55;;;;;;;4.66;100.00;102222.13;5006623;28;20441;-69
2024/01/23 06:46:46;;;;;;;19.60;3.97;;;;;;;4.65;100.00;102235.16;5021477;28;20704;-69
2024/01/23 06:49:14;;;;;;;17.02;3.33;;;;;;;4.59;100.00;102237.66;5007980;28;20041;-69
2024/01/23 06:51:41;;;;;;;21.45;3.55;;;;;;;4.54;100.00;102239.34;5008116;28;20053;-69
2024/01/23 06:54:08;;;;;;;24.83;4.57;;;;;;;4.51;100.00;102229.72;5004799;28;20038;-69
2024/01/23 06:56:35;;;;;;;16.13;2.90;;;;;;;4.46;100.00;102239.19;5009363;28;20046;-69
2024/01/23 06:59:04;;;;;;;16.67;2.90;;;;;;;4.42;100.00;102247.84;5010305;28;20053;-69
2024/01/23 07:01:32;;;;;;;17.77;4.13;;;;;;;4.40;100.00;102254.75;5025643;28;20045;-69
2024/01/23 07:03:59;;;;;;;24.88;3.40;;;;;;;4.39;100.00;102250.38;5007177;28;20041;-69
2024/01/23 07:06:27;;;;;;;20.35;3.85;;;;;;;4.38;100.00;102248.63;5004439;28;20057;-69
2024/01/23 07:08:54;;;;;;;23.45;4.10;;;;;;;4.37;100.00;102250.38;5007006;28;20503;-69
2024/01/23 07:11:21;;;;;;;20.77;4.28;;;;;;;4.35;100.00;102258.16;5007744;28;20975;-69
2024/01/23 07:13:48;;;;;;;26.15;4.15;;;;;;;4.36;100.00;102259.06;5007871;28;20418;-69
2024/01/23 07:16:15;;;;;;;16.42;4.15;;;;;;;4.39;100.00;102272.16;5008824;28;20042;-68
2024/01/23 07:18:43;;;;;;;17.90;3.42;;;;;;;4.37;100.00;102270.38;5008538;28;20121;-69
2024/01/23 07:21:10;;;;;;;19.58;3.55;;;;;;;4.38;100.00;102267.78;5008043;28;20058;-69
2024/01/23 07:23:37;;;;;;;15.85;3.70;;;;;;;4.36;100.00;102272.13;5007684;28;20042;-69
2024/01/23 07:26:05;;;;;;;21.17;3.45;;;;;;;4.36;100.00;102272.13;5004855;28;20042;-69
2024/01/23 07:28:32;;;;;;;21.13;3.75;;;;;;;4.33;100.00;102267.69;5008596;28;20049;-69
2024/01/23 07:31:19;;;;;;;17.95;3.83;;;;;;;4.37;100.00;102271.25;5006618;28;20498;-69
2024/01/23 07:33:46;;;;;;;22.27;4.32;;;;;;;4.38;100.00;102272.13;5007859;28;20049;-69
2024/01/23 07:36:14;;;;;;;23.15;4.47;;;;;;;4.40;100.00;102281.75;5009311;28;20046;-69
2024/01/23 07:38:41;;;;;;;14.52;3.92;;;;;;;4.40;100.00;102286.09;5008226;28;20049;-69
2024/01/23 07:41:08;;;;;;;23.10;4.07;;;;;;;4.41;100.00;102300.91;5008376;28;20046;-69
2024/01/23 07:43:36;;;;;;;21.23;3.67;;;;;;;4.39;100.00;102308.72;5021462;28;20050;-69
2024/01/23 07:46:03;;;;;;;21.92;3.88;;;;;;;4.39;100.00;102313.06;4998503;28;20048;-69
2024/01/23 07:48:31;;;;;;;22.65;3.33;;;;;;;4.39;100.00;102313.94;5008255;28;20053;-69
2024/01/23 07:50:58;;;;;;;22.20;3.53;;;;;;;4.41;100.00;102313.97;5006344;28;20045;-69
2024/01/23 07:53:25;;;;;;;24.85;4.00;;;;;;;4.42;100.00;102323.56;5007268;28;20108;-69
2024/01/23 07:55:52;;;;;;;25.40;5.38;;;;;;;4.43;100.00;102322.69;5006124;28;20116;-69
2024/01/23 07:58:19;;;;;;;19.58;3.50;;;;;;;4.47;100.00;102332.38;5006794;28;20058;-69
2024/01/23 08:00:46;;;;;;;25.08;3.90;;;;;;;4.48;100.00;102329.78;5008609;28;20060;-69
2024/01/23 08:03:14;;;;;;;24.15;3.95;;;;;;;4.50;100.00;102330.69;5006312;28;20119;-69
2024/01/23 08:05:41;;;;;;;23.30;4.10;;;;;;;4.51;100.00;102342.91;5007455;28;20536;-69
2024/01/23 08:08:08;;;;;;;17.70;4.38;;;;;;;4.54;100.00;102347.28;5008352;28;20162;-69
2024/01/23 08:10:35;;;;;;;21.92;3.67;;;;;;;4.55;100.00;102349.06;5007399;28;20067;-69
2024/01/23 08:13:03;;;;;;;25.48;3.78;;;;;;;4.60;100.00;102355.25;5008028;28;20050;-70
2024/01/23 08:15:30;;;;;;;25.38;4.03;;;;;;;4.64;100.00;102354.44;5008325;28;20046;-69
2024/01/23 08:17:57;;;;;;;18.42;3.40;;;;;;;4.69;100.00;102356.28;5008040;28;20073;-69
2024/01/23 08:20:26;;;;;;;12.68;3.22;;;;;;;4.72;100.00;102364.19;5008132;28;20049;-69
2024/01/23 08:22:53;;;;;;;21.48;3.75;;;;;;;4.75;100.00;102354.66;5008064;28;20041;-69
2024/01/23 08:25:20;;;;;;;21.90;4.13;;;;;;;4.79;100.00;102363.44;5008084;28;20124;-71
2024/01/23 08:27:47;;;;;;;26.95;3.65;;;;;;;4.84;100.00;102356.53;5007296;28;20075;-70
2024/01/23 08:30:15;;;;;;;21.80;3.53;;;;;;;4.90;100.00;102363.59;5023401;28;20058;-70
2024/01/23 08:32:43;;;;;;;15.15;3.58;;;;;;;4.95;100.00;102368.06;5008213;28;20202;-70
2024/01/23 08:35:10;;;;;;;33.58;4.93;;;;;;;5.00;100.00;102367.28;5008026;28;20129;-69
2024/01/23 08:37:38;;;;;;;18.88;3.85;;;;;;;5.01;100.00;102367.28;5008016;28;20046;-69
2024/01/23 08:40:06;;;;;;;20.98;4.07;;;;;;;5.05;100.00;102366.50;5008739;28;20049;-69
2024/01/23 08:42:34;;;;;;;18.05;3.10;;;;;;;5.11;100.00;102389.25;5010910;28;20128;-69
2024/01/23 08:45:01;;;;;;;22.73;3.70;;;;;;;5.16;100.00;102379.75;5011215;28;20120;-69
2024/01/23 08:47:28;;;;;;;23.65;4.32;;;;;;;5.22;100.00;102394.66;5010623;28;20115;-69
2024/01/23 08:49:56;;;;;;;22.33;3.20;;;;;;;5.28;100.00;102400.88;5011583;28;20053;-69
2024/01/23 08:52:23;;;;;;;28.45;4.50;;;;;;;5.35;100.00;102408.81;5011668;28;20046;-69
2024/01/23 08:54:50;;;;;;;19.80;4.45;;;;;;;5.39;100.00;102406.28;5009732;28;20092;-69
2024/01/23 08:57:18;;;;;;;30.70;3.88;;;;;;;5.44;100.00;102404.63;5010289;28;20068;-70
2024/01/23 08:59:45;;;;;;;22.60;4.20;;;;;;;5.49;100.00;102403.84;5011469;28;20425;-69
2024/01/23 09:02:14;;;;;;;21.02;4.28;;;;;;;5.52;100.00;102399.53;5011425;28;20049;-69
2024/01/23 09:04:41;;;;;;;22.17;3.95;;;;;;;5.56;100.00;102401.31;5011742;28;20042;-70
2024/01/23 09:07:08;;;;;;;15.65;3.60;;;;;;;5.59;100.00;102406.59;5010898;28;20054;-69
2024/01/23 09:09:35;;;;;;;19.63;3.63;;;;;;;5.62;100.00;102395.31;5011325;28;20096;-69
2024/01/23 09:12:03;;;;;;;22.25;3.70;;;;;;;5.68;100.00;102410.22;5010986;28;20050;-70
2024/01/23 09:14:30;;;;;;;18.55;3.75;;;;;;;5.72;100.00;102396.34;5026532;28;20079;-69
2024/01/23 09:16:57;;;;;;;18.48;3.83;;;;;;;5.73;100.00;102403.34;5010058;28;20092;-69
2024/01/23 09:19:26;;;;;;;19.23;3.72;;;;;;;5.77;100.00;102410.34;5011133;28;20038;-69
2024/01/23 09:21:54;;;;;;;26.42;3.85;;;;;;;5.78;100.00;102412.09;5011259;28;20073;-69
2024/01/23 09:24:22;;;;;;;16.80;3.65;;;;;;;5.83;100.00;102417.41;5010484;28;20064;-69
2024/01/23 09:26:49;;;;;;;24.63;4.35;;;;;;;5.88;100.00;102410.53;5010688;28;20390;-70
2024/01/23 09:29:17;;;;;;;19.67;4.13;;;;;;;5.90;100.00;102421.91;5011352;28;20053;-71
2024/01/23 09:31:46;;;;;;;18.10;4.32;;;;;;;5.95;100.00;102420.22;5010624;28;20041;-70
2024/01/23 09:34:13;;;;;;;20.52;3.60;;;;;;;6.00;100.00;102423.78;5009999;28;20072;-69
2024/01/23 09:36:41;;;;;;;20.75;4.38;;;;;;;6.05;100.00;102416.03;5009491;28;20467;-69
2024/01/23 09:39:13;;;;;;;21.60;3.78;;;;;;;6.08;100.00;102405.59;5010477;28;20798;-69
2024/01/23 09:41:49;;;;;;;13.35;4.93;;;;;;;6.15;100.00;102411.78;5010027;28;20129;-69
2024/01/23 09:44:20;;;;;;;17.30;3.50;;;;;;;6.21;100.00;102410.13;5008961;28;20045;-69
2024/01/23 09:46:51;;;;;;;22.30;4.22;;;;;;;6.26;100.00;102419.81;5010126;28;20085;-69
2024/01/23 09:49:20;;;;;;;30.00;5.32;;;;;;;6.33;100.00;102413.78;5008810;28;20124;-69
2024/01/23 09:51:49;;;;;;;25.75;4.15;;;;;;;6.39;100.00;102421.69;5010406;28;20066;-70
2024/01/23 09:54:17;;;;;;;21.08;4.25;;;;;;;6.47;100.00;102437.50;5008720;28;20505;-69
2024/01/23 09:56:45;;;;;;;24.70;3.90;;;;;;;6.53;100.00;102432.34;5009111;28;20046;-69
2024/01/23 09:59:12;;;;;;;23.00;3.72;;;;;;;6.59;100.00;102431.53;5009783;28;20054;-70
2024/01/23 10:01:39;;;;;;;18.70;3.85;;;;;;;6.65;99.59;102434.25;5010302;28;20057;-69
2024/01/23 10:04:06;;;;;;;21.95;4.45;;;;;;;6.64;99.80;102441.22;5010396;28;20052;-69
2024/01/23 10:06:34;;;;;;;22.98;3.90;;;;;;;6.68;99.84;102444.75;5009766;28;20050;-71
2024/01/23 10:09:04;;;;;;;54.65;18.67;;;;;;;6.66;99.81;102443.88;5010575;28;20096;-69
2024/01/23 10:11:36;;;;;;;23.33;4.88;;;;;;;6.67;99.27;102445.59;5024988;28;20502;-69
2024/01/23 10:14:04;;;;;;;18.10;4.35;;;;;;;6.73;98.69;102444.78;5009751;28;20042;-69
2024/01/23 10:16:32;;;;;;;27.55;4.82;;;;;;;6.74;98.38;102438.69;5009020;28;20049;-69
2024/01/23 10:19:00;;;;;;;17.48;5.20;;;;;;;6.76;98.76;102439.59;5010201;28;20046;-71
2024/01/23 10:21:28;;;;;;;21.05;4.22;;;;;;;6.81;98.16;102444.03;5010699;28;20621;-70
2024/01/23 10:23:57;;;;;;;20.35;5.25;;;;;;;6.87;98.00;102450.22;4992561;28;20449;-69
2024/01/23 10:26:24;;;;;;;20.05;4.88;;;;;;;6.91;98.30;102450.28;5008243;28;20061;-70
2024/01/23 10:28:52;;;;;;;21.85;4.05;;;;;;;6.97;97.56;102438.94;5006162;28;20046;-70
2024/01/23 10:31:19;;;;;;;26.27;5.03;;;;;;;7.03;96.99;102443.38;5009514;28;20129;-70
2024/01/23 10:33:46;;;;;;;19.00;4.68;;;;;;;7.08;97.19;102433.81;5008443;28;20129;-70
2024/01/23 10:36:15;;;;;;;22.55;4.22;;;;;;;7.11;96.36;102432.09;5009052;28;20510;-70
2024/01/23 10:38:43;;;;;;;19.10;4.88;;;;;;;7.15;96.37;102435.63;5005188;28;20092;-70
2024/01/23 10:41:15;;;;;;;22.90;5.00;;;;;;;7.20;95.80;102438.28;5000213;28;20485;-70
2024/01/23 10:43:46;;;;;;;20.95;5.70;;;;;;;7.29;95.95;102441.00;4992429;28;20033;-71
2024/01/23 10:46:13;;;;;;;22.60;4.82;;;;;;;7.39;95.39;102429.72;5009244;28;20049;-71
2024/01/23 10:48:41;;;;;;;22.33;4.55;;;;;;;7.44;95.62;102429.75;5010196;28;20053;-70
2024/01/23 10:51:19;;;;;;;21.88;4.22;;;;;;;7.52;94.53;102427.19;5008804;28;20042;-70
2024/01/23 10:54:01;;;;;;;16.92;3.83;;;;;;;7.58;94.52;102425.50;4997115;28;20116;-70
2024/01/23 10:56:33;;;;;;;24.25;4.68;;;;;;;7.66;94.44;102417.69;5009391;28;20241;-70
2024/01/23 10:59:05;;;;;;;20.80;4.22;;;;;;;7.69;94.29;102428.19;5008366;28;20120;-70
2024/01/23 11:01:42;;;;;;;24.33;4.60;;;;;;;7.64;93.87;102432.53;5020662;28;20050;-70
2024/01/23 11:04:09;;;;;;;20.52;4.35;;;;;;;7.61;93.04;102416.75;5008566;28;20116;-70
2024/01/23 11:06:52;;;;;;;22.52;4.70;;;;;;;7.65;92.76;102415.03;5008949;28;20168;-71
2024/01/23 11:09:29;;;;;;;25.70;4.15;;;;;;;7.70;93.43;102415.97;5003950;28;20045;-71
2024/01/23 11:12:10;;;;;;;17.83;4.00;;;;;;;7.81;93.26;102424.78;5024856;28;20073;-71
2024/01/23 11:14:55;;;;;;;18.83;4.78;;;;;;;7.90;93.13;102424.84;5007036;28;20112;-71
2024/01/23 11:17:22;;;;;;;25.02;6.97;;;;;;;7.96;93.32;102417.84;4991873;28;20052;-71
2024/01/23 11:20:14;;;;;;;15.85;3.50;;;;;;;8.03;91.53;102417.91;5024358;28;20054;-71
2024/01/23 11:22:42;;;;;;;18.83;4.32;;;;;;;8.08;91.68;102412.69;5008374;28;20038;-71
2024/01/23 11:25:10;;;;;;;20.15;4.63;;;;;;;8.11;91.53;102409.19;5013734;28;20046;-71